Terminal Aerodrome Forecast
Issued by NWS Flagstaff, AZ

Home | Current Version | Previous Version | Text Only | Print | Product List | Glossary On
Versions: 1 2 3 4 5 6 7 8 9 10 11 12
000
FTUS45 KFGZ 242323 RRA
TAFINW
TAF
KINW 242323Z 2423/2524 29010G20KT P6SM FEW200
     FM250200 23010KT P6SM FEW250
     FM250900 30010KT P6SM FEW250=

USA.gov is the U.S. government's official web portal to all federal, state and local government web resources and services.